Time;durP1;ratioP1;P1;durP2;ratioP2;P2;SDS_P1;SDS_P2;PMS_P1;PMS_P2;Temp;Humidity;BMP_temperature;BMP_pressure;BME280_temperature;BME280_humidity;BME280_pressure;Samples;Min_cycle;Max_cycle;Signal;HPM_P1;HPM_P2
2022/08/10 00:02:00;;;;;;;;;6.00;6.00;;;;;-147.49;100.00;58502.75;6392751;22;58128;-91
2022/08/10 00:04:28;;;;;;;;;5.33;5.33;;;;;-147.49;100.00;58502.75;6395170;22;28395;-92
2022/08/10 00:06:57;;;;;;;;;7.33;7.33;;;;;-147.49;100.00;58502.75;6365937;22;28353;-92
2022/08/10 00:09:23;;;;;;;;;6.33;5.00;;;;;-147.49;100.00;58502.75;6395575;22;28230;-91
2022/08/10 00:11:49;;;;;;;;;6.33;6.33;;;;;-147.49;100.00;58502.75;6364579;22;29660;-92
2022/08/10 00:14:22;;;;;;;;;7.33;7.33;;;;;-147.49;100.00;58502.75;6394623;22;28170;-92
2022/08/10 00:16:50;;;;;;;;;6.00;5.33;;;;;-147.49;100.00;58502.75;6365996;22;28450;-91
2022/08/10 00:19:35;;;;;;;;;5.00;5.00;;;;;-147.49;100.00;58502.75;6366311;22;28252;-92
2022/08/10 00:22:03;;;;;;;;;8.00;8.00;;;;;-147.49;100.00;58502.75;6382528;22;63885;-92
2022/08/10 00:24:29;;;;;;;;;5.33;5.33;;;;;-147.49;100.00;58502.75;6387887;22;47762;-92
2022/08/10 00:31:19;;;;;;;;;;;;;;;-147.49;100.00;58502.75;3069996;22;73455655;-91
2022/08/10 00:37:33;;;;;;;;;6.00;6.00;;;;;-147.49;100.00;58502.75;2;173990232;173990232;-91
2022/08/10 00:44:53;;;;;;;;;9.00;9.00;;;;;-147.49;100.00;58502.75;2;210408589;210408589;-91
2022/08/10 00:50:41;;;;;;;;;5.50;5.50;;;;;-147.49;100.00;58502.75;2;164147757;164147757;-92
2022/08/10 00:57:58;;;;;;;;;3.50;3.50;;;;;-147.49;100.00;58502.75;2;201607794;201607794;-92
2022/08/10 01:04:21;;;;;;;;;2.00;2.00;;;;;-147.49;100.00;58502.75;67753;22;155903017;-91
2022/08/10 01:10:42;;;;;;;;;3.00;3.00;;;;;-147.49;100.00;58502.75;2;159855903;159855903;-92
2022/08/10 01:17:04;;;;;;;;;3.00;3.00;;;;;-147.49;100.00;58502.75;2;145197105;145197105;-91
2022/08/10 01:23:05;;;;;;;;;3.00;3.00;;;;;-147.49;100.00;58502.75;2;164646714;164646714;-91
2022/08/10 01:27:08;;;;;;;;;4.00;4.00;;;;;-147.49;100.00;58502.75;3;26482250;131837528;-92
2022/08/10 01:33:46;;;;;;;;;;;;;;;-147.49;100.00;58502.75;2;234069192;234069192;-92
2022/08/10 01:39:35;;;;;;;;;6.00;6.00;;;;;-147.49;100.00;58502.75;2;151050128;151050128;-91
2022/08/10 01:46:38;;;;;;;;;3.00;3.00;;;;;-147.49;100.00;58502.75;3;113558882;117934943;-92
2022/08/10 01:52:51;;;;;;;;;5.00;5.00;;;;;-147.49;100.00;58502.75;3;122023270;139026055;-92
2022/08/10 01:55:28;;;;;;;;;;;;;;;;;;;;;
2022/08/10 01:57:59;;;;;;;;;5.00;5.00;;;;;-147.49;100.00;58502.75;5367771;22;7704271;-91
2022/08/10 02:00:34;;;;;;;;;4.50;4.50;;;;;-147.49;100.00;58502.75;6265604;22;2225632;-91
2022/08/10 02:03:19;;;;;;;;;;;;;;;;;;;;;
2022/08/10 02:06:04;;;;;;;;;;;;;;;;;;;;;
2022/08/10 02:08:33;;;;;;;;;4.50;4.50;;;;;-147.49;100.00;58502.75;5272458;22;25295577;-92
2022/08/10 02:11:13;;;;;;;;;;;;;;;-147.49;100.00;58502.75;1173312;22;118593925;-92
2022/08/10 02:14:14;;;;;;;;;4.50;4.50;;;;;-147.49;100.00;58502.75;296375;22;120836323;-92
2022/08/10 02:17:12;;;;;;;;;;;;;;;-147.49;100.00;58502.75;438621;22;117529699;-92
2022/08/10 02:21:06;;;;;;;;;4.50;4.50;;;;;-147.49;100.00;58502.75;441001;22;102331697;-91
2022/08/10 02:26:19;;;;;;;;;5.00;5.00;;;;;-147.49;100.00;58502.75;657825;22;117432249;-91
2022/08/10 02:29:42;;;;;;;;;0.00;0.00;;;;;-147.49;100.00;58502.75;220545;22;106097873;-92
2022/08/10 02:33:33;;;;;;;;;7.50;7.50;;;;;-147.49;100.00;58502.75;2645318;22;90207376;-92
2022/08/10 02:38:20;;;;;;;;;4.50;4.50;;;;;-147.49;100.00;58502.75;256138;22;83674692;-92
2022/08/10 02:42:34;;;;;;;;;;;;;;;;;;;;;
2022/08/10 02:46:00;;;;;;;;;5.00;5.00;;;;;-147.49;100.00;58502.75;218082;22;83583938;-92
2022/08/10 02:49:38;;;;;;;;;7.00;7.00;;;;;-147.49;100.00;58502.75;3487394;22;34012412;-92
2022/08/10 02:56:34;;;;;;;;;;;;;;;-147.49;100.00;58502.75;2;260059071;260059071;-91
2022/08/10 03:03:55;;;;;;;;;1.50;1.50;;;;;-147.49;100.00;58502.75;3;110287202;150255807;-92
2022/08/10 03:13:11;;;;;;;;;5.00;5.00;;;;;-147.49;100.00;58502.75;256305;22;115859474;-92
2022/08/10 03:19:42;;;;;;;;;;;;;;;-147.49;100.00;58502.75;2;208271995;208271995;-92
2022/08/10 03:22:50;;;;;;;;;;;;;;;;;;;;;
2022/08/10 03:28:24;;;;;;;;;4.50;4.50;;;;;-147.49;100.00;58502.75;2;145853716;145853716;-91
2022/08/10 03:34:29;;;;;;;;;9.50;9.50;;;;;-147.49;100.00;58502.75;440467;22;133239328;-91
2022/08/10 03:41:49;;;;;;;;;2.50;2.50;;;;;-147.49;100.00;58502.75;3;115489521;142239532;-91
2022/08/10 03:51:24;;;;;;;;;4.50;4.50;;;;;-147.49;100.00;58502.75;3;115301683;126372605;-92
2022/08/10 03:55:53;;;;;;;;;;;;;;;-147.49;100.00;58502.75;2;223248207;223248207;-91
2022/08/10 03:58:19;;;;;;;;;4.00;4.00;;;;;-147.49;100.00;58502.75;374443;22;23450465;-91
2022/08/10 04:03:43;;;;;;;;;4.00;4.00;;;;;-147.49;100.00;58502.75;219338;22;164887267;-92
2022/08/10 04:06:42;;;;;;;;;1.50;1.50;;;;;-147.49;100.00;58502.75;5;35547078;44791976;-92
2022/08/10 04:09:16;;;;;;;;;5.00;5.00;;;;;-147.49;100.00;58502.75;1923201;22;21122214;-92
2022/08/10 04:11:42;;;;;;;;;4.00;4.00;;;;;-147.49;100.00;58502.75;6364710;22;205429;-91
2022/08/10 04:14:12;;;;;;;;;4.00;4.00;;;;;-147.49;100.00;58502.75;3957941;22;8773498;-92
2022/08/10 04:16:38;;;;;;;;;4.00;4.00;;;;;-147.49;100.00;58502.75;6079622;22;1243206;-92
2022/08/10 04:19:10;;;;;;;;;4.00;4.00;;;;;-147.49;100.00;58502.75;6316885;22;350462;-92
2022/08/10 04:22:08;;;;;;;;;;;;;;;-147.49;100.00;58502.75;3481615;22;45774474;-91
2022/08/10 04:24:36;;;;;;;;;5.00;5.00;;;;;-147.49;100.00;58502.75;33632;22;16725388;-91
2022/08/10 04:27:05;;;;;;;;;3.00;3.00;;;;;-147.49;100.00;58502.75;4345906;22;26336481;-91
2022/08/10 04:31:08;;;;;;;;;1.00;1.00;;;;;-147.49;100.00;58502.75;4320311;22;32887273;-91
2022/08/10 04:33:38;;;;;;;;;5.25;5.25;;;;;-147.49;100.00;58502.75;4784389;22;13338321;-91
2022/08/10 04:36:05;;;;;;;;;4.67;4.67;;;;;-147.49;100.00;58502.75;6391895;22;41379;-92
2022/08/10 04:38:33;;;;;;;;;7.67;7.67;;;;;-147.49;100.00;58502.75;6361959;22;34468;-91
2022/08/10 04:41:03;;;;;;;;;8.33;7.00;;;;;-147.49;100.00;58502.75;6391668;22;29862;-92
2022/08/10 04:43:28;;;;;;;;;5.67;5.67;;;;;-147.49;100.00;58502.75;6390866;22;29143;-91
2022/08/10 04:45:54;;;;;;;;;4.00;4.00;;;;;-147.49;100.00;58502.75;6393759;22;28805;-91
2022/08/10 04:48:23;;;;;;;;;6.00;6.00;;;;;-147.49;100.00;58502.75;6365018;22;31915;-91
2022/08/10 04:50:55;;;;;;;;;5.00;5.00;;;;;-147.49;100.00;58502.75;6364785;22;29137;-91
2022/08/10 04:53:25;;;;;;;;;4.00;4.00;;;;;-147.49;100.00;58502.75;6390233;22;36327;-92
2022/08/10 04:55:51;;;;;;;;;4.00;4.00;;;;;-147.49;100.00;58502.75;6365537;22;29078;-91
2022/08/10 04:58:16;;;;;;;;;4.00;4.00;;;;;-147.49;100.00;58502.75;6365557;22;29773;-91
2022/08/10 05:00:42;;;;;;;;;5.33;5.33;;;;;-147.49;100.00;58502.75;6364739;22;30293;-92
2022/08/10 05:03:13;;;;;;;;;4.67;4.67;;;;;-147.49;100.00;58502.75;6365224;22;28821;-92
2022/08/10 05:05:48;;;;;;;;;4.00;4.00;;;;;-147.49;100.00;58502.75;6366197;22;28297;-91
2022/08/10 05:08:34;;;;;;;;;6.67;5.67;;;;;-147.49;100.00;58502.75;6365429;22;29638;-92
2022/08/10 05:10:59;;;;;;;;;4.00;4.00;;;;;-147.49;100.00;58502.75;6393423;22;28406;-92
2022/08/10 05:13:32;;;;;;;;;4.00;4.00;;;;;-147.49;100.00;58502.75;6365822;22;28273;-91
2022/08/10 05:16:18;;;;;;;;;;;;;;;;;;;;;
2022/08/10 05:18:47;;;;;;;;;3.00;2.00;;;;;-147.49;100.00;58502.75;6393397;22;57335;-91
2022/08/10 05:21:32;;;;;;;;;;;;;;;;;;;;;
2022/08/10 05:24:03;;;;;;;;;5.33;5.33;;;;;-147.49;100.00;58502.75;6393109;22;54593;-91
2022/08/10 05:26:57;;;;;;;;;6.67;6.67;;;;;-147.49;100.00;58502.75;6365136;22;28392;-91
2022/08/10 05:29:25;;;;;;;;;4.33;4.33;;;;;-147.49;100.00;58502.75;6364858;22;29701;-92
2022/08/10 05:31:59;;;;;;;;;4.33;4.33;;;;;-147.49;100.00;58502.75;6364834;22;29212;-92
2022/08/10 05:34:27;;;;;;;;;5.33;5.33;;;;;-147.49;100.00;58502.75;6394887;22;28286;-92
2022/08/10 05:37:01;;;;;;;;;4.00;4.00;;;;;-147.49;100.00;58502.75;6364943;22;28602;-91
2022/08/10 05:39:45;;;;;;;;;;;;;;;;;;;;;
2022/08/10 05:42:33;;;;;;;;;;;;;;;;;;;;;
2022/08/10 05:45:11;;;;;;;;;5.00;5.00;;;;;-147.49;100.00;58502.75;6310272;22;412918;-92
2022/08/10 05:47:59;;;;;;;;;4.00;4.00;;;;;-147.49;100.00;58502.75;6365634;22;28548;-92
2022/08/10 05:50:52;;;;;;;;;4.67;4.67;;;;;-147.49;100.00;58502.75;6394666;22;28299;-92
2022/08/10 05:54:01;;;;;;;;;5.00;5.00;;;;;-147.49;100.00;58502.75;6365219;22;28641;-91
2022/08/10 05:56:50;;;;;;;;;4.00;4.00;;;;;-147.49;100.00;58502.75;6376632;22;28656;-92
2022/08/10 05:59:33;;;;;;;;;;;;;;;;;;;;;
2022/08/10 06:02:39;;;;;;;;;3.67;3.67;;;;;-147.49;100.00;58502.75;6390887;22;56824;-92
2022/08/10 06:05:29;;;;;;;;;4.00;4.00;;;;;-147.49;100.00;58502.75;6365266;22;28519;-91
2022/08/10 06:08:17;;;;;;;;;;;;;;;;;;;;;
2022/08/10 06:17:13;;;;;;;;;3.00;3.00;;;;;-147.49;100.00;58502.75;6393153;22;28738;-92
2022/08/10 19:07:53;;;;;;;;;8.00;8.00;;;;;-147.49;100.00;58502.75;6393930;22;28494;-90
2022/08/10 19:10:43;;;;;;;;;9.33;9.33;;;;;-147.49;100.00;58502.75;6393496;22;28284;-90
2022/08/10 19:13:46;;;;;;;;;7.50;7.50;;;;;-147.49;100.00;58502.75;6333264;22;28631;-89
2022/08/10 19:16:47;;;;;;;;;6.67;6.67;;;;;-147.49;100.00;58502.75;6362318;22;28444;-90
2022/08/10 19:19:40;;;;;;;;;7.67;7.67;;;;;-147.49;100.00;58502.75;6363520;22;28457;-89
2022/08/10 19:22:20;;;;;;;;;9.67;8.00;;;;;-147.49;100.00;58502.75;6359712;22;28754;-90
2022/08/10 19:25:12;;;;;;;;;10.67;9.33;;;;;-147.49;100.00;58502.75;6362269;22;28413;-90
2022/08/10 19:27:51;;;;;;;;;8.00;8.00;;;;;-147.49;100.00;58502.75;6363618;22;28278;-90
2022/08/10 19:30:17;;;;;;;;;8.33;8.33;;;;;-147.49;100.00;58502.75;6362581;22;29123;-90
2022/08/10 19:33:33;;;;;;;;;;;;;;;;;;;;;
2022/08/10 19:36:43;;;;;;;;;9.33;9.33;;;;;-147.49;100.00;58502.75;6360215;22;28317;-91
2022/08/10 19:39:25;;;;;;;;;5.67;5.67;;;;;-147.49;100.00;58502.75;6331344;22;28274;-91
2022/08/10 19:42:11;;;;;;;;;8.00;6.67;;;;;-147.49;100.00;58502.75;6356332;22;29007;-91
2022/08/10 19:44:59;;;;;;;;;7.33;7.33;;;;;-147.49;100.00;58502.75;6356095;22;28725;-91
2022/08/10 19:51:22;;;;;;;;;;;;;;;;;;;;;
2022/08/10 19:54:17;;;;;;;;;7.67;7.67;;;;;-147.49;100.00;58502.75;6352909;22;28359;-91
2022/08/10 19:57:08;;;;;;;;;7.33;7.33;;;;;-147.49;100.00;58502.75;6327445;22;28675;-91
2022/08/10 20:00:41;;;;;;;;;6.00;6.00;;;;;-147.49;100.00;58502.75;6328533;22;28305;-91
2022/08/10 20:07:14;;;;;;;;;7.33;7.33;;;;;-147.49;100.00;58502.75;6270978;22;28480;-91
2022/08/10 20:10:33;;;;;;;;;;;;;;;;;;;;;
2022/08/10 20:13:10;;;;;;;;;3.00;3.00;;;;;-147.49;100.00;58502.75;6224552;22;53581;-91
2022/08/10 20:15:48;;;;;;;;;5.33;5.33;;;;;-147.49;100.00;58502.75;6201055;22;28379;-90
2022/08/10 20:18:46;;;;;;;;;6.00;6.00;;;;;-147.49;100.00;58502.75;6224408;22;29769;-90
2022/08/10 20:21:41;;;;;;;;;6.00;6.00;;;;;-147.49;100.00;58502.75;6190197;22;28967;-91
2022/08/10 20:24:35;;;;;;;;;5.00;5.00;;;;;-147.49;100.00;58502.75;6200056;22;28569;-91
2022/08/10 20:27:10;;;;;;;;;8.00;7.00;;;;;-147.49;100.00;58502.75;6199927;22;28502;-91
2022/08/10 20:29:43;;;;;;;;;6.00;6.00;;;;;-147.49;100.00;58502.75;6226324;22;28938;-91
2022/08/10 20:32:31;;;;;;;;;6.33;5.00;;;;;-147.49;100.00;58502.75;6227730;22;28823;-91
2022/08/10 20:35:23;;;;;;;;;7.67;7.67;;;;;-147.49;100.00;58502.75;6225940;22;28453;-91
2022/08/10 20:38:59;;;;;;;;;;;;;;;;;;;;;
2022/08/10 20:42:03;;;;;;;;;5.33;5.33;;;;;-147.49;100.00;58502.75;6231707;22;28619;-91
2022/08/10 20:44:53;;;;;;;;;5.67;5.67;;;;;-147.49;100.00;58502.75;6226958;22;28731;-91
2022/08/10 20:48:11;;;;;;;;;5.67;5.67;;;;;-147.49;100.00;58502.75;6205081;22;28524;-91
2022/08/10 20:51:38;;;;;;;;;;;;;;;;;;;;;
2022/08/10 20:54:30;;;;;;;;;9.67;8.33;;;;;-147.49;100.00;58502.75;6226829;22;58108;-91
2022/08/10 20:57:33;;;;;;;;;;;;;;;;;;;;;
2022/08/10 21:00:24;;;;;;;;;5.00;5.00;;;;;-147.49;100.00;58502.75;6225268;22;54441;-91
2022/08/10 21:03:40;;;;;;;;;5.00;5.00;;;;;-147.49;100.00;58502.75;6226744;22;28639;-91
2022/08/10 21:06:45;;;;;;;;;;;;;;;;;;;;;
2022/08/10 21:09:48;;;;;;;;;;;;;;;;;;;;;
2022/08/10 21:12:44;;;;;;;;;7.33;7.33;;;;;-147.49;100.00;58502.75;6355273;22;53087;-91
2022/08/10 21:15:53;;;;;;;;;6.67;6.67;;;;;-147.49;100.00;58502.75;6315199;22;28974;-91
2022/08/10 21:18:46;;;;;;;;;;;;;;;;;;;;;
2022/08/10 21:21:54;;;;;;;;;3.67;3.67;;;;;-147.49;100.00;58502.75;6350158;22;55588;-92
2022/08/10 23:09:56;;;;;;;;;;;;;;;;;;;;;
2022/08/10 23:34:44;;;;;;;;;;;;;;;;;;;;;
2022/08/10 23:51:14;;;;;;;;;;;;;;;;;;;;;
2022/08/10 23:54:26;;;;;;;;;;;;;;;;;;;;;
